sensor_id;sensor_type;location;lat;lon;timestamp;temperature;humidity
10692;DHT22;5396;50.950;6.988;2024-01-16T00:02:06;1.60;99.90
10692;DHT22;5396;50.950;6.988;2024-01-16T00:04:33;1.60;99.90
10692;DHT22;5396;50.950;6.988;2024-01-16T00:06:58;1.60;99.90
10692;DHT22;5396;50.950;6.988;2024-01-16T00:09:24;1.60;99.90
10692;DHT22;5396;50.950;6.988;2024-01-16T00:11:49;1.60;99.90
10692;DHT22;5396;50.950;6.988;2024-01-16T00:14:15;1.60;99.90
10692;DHT22;5396;50.950;6.988;2024-01-16T00:16:44;1.60;99.90
10692;DHT22;5396;50.950;6.988;2024-01-16T00:19:10;1.70;99.90
10692;DHT22;5396;50.950;6.988;2024-01-16T00:21:40;1.60;99.90
10692;DHT22;5396;50.950;6.988;2024-01-16T00:24:05;1.70;99.90
10692;DHT22;5396;50.950;6.988;2024-01-16T00:26:32;1.60;99.90
10692;DHT22;5396;50.950;6.988;2024-01-16T00:28:57;1.60;99.90
10692;DHT22;5396;50.950;6.988;2024-01-16T00:31:23;1.60;99.90
10692;DHT22;5396;50.950;6.988;2024-01-16T00:33:48;1.60;99.90
10692;DHT22;5396;50.950;6.988;2024-01-16T00:36:14;1.60;99.90
10692;DHT22;5396;50.950;6.988;2024-01-16T00:38:40;1.60;99.90
10692;DHT22;5396;50.950;6.988;2024-01-16T00:41:05;1.60;99.90
10692;DHT22;5396;50.950;6.988;2024-01-16T00:43:32;1.60;99.90
10692;DHT22;5396;50.950;6.988;2024-01-16T00:45:57;1.60;99.90
10692;DHT22;5396;50.950;6.988;2024-01-16T00:48:23;1.60;99.90
10692;DHT22;5396;50.950;6.988;2024-01-16T00:50:48;1.60;99.90
10692;DHT22;5396;50.950;6.988;2024-01-16T00:53:17;1.60;99.90
10692;DHT22;5396;50.950;6.988;2024-01-16T00:55:43;1.50;99.90
10692;DHT22;5396;50.950;6.988;2024-01-16T00:58:08;1.50;99.90
10692;DHT22;5396;50.950;6.988;2024-01-16T01:00:33;1.50;99.90
10692;DHT22;5396;50.950;6.988;2024-01-16T01:03:00;1.40;99.90
10692;DHT22;5396;50.950;6.988;2024-01-16T01:05:26;1.40;99.90
10692;DHT22;5396;50.950;6.988;2024-01-16T01:07:54;1.40;99.90
10692;DHT22;5396;50.950;6.988;2024-01-16T01:10:20;1.40;99.90
10692;DHT22;5396;50.950;6.988;2024-01-16T01:12:45;1.40;99.90
10692;DHT22;5396;50.950;6.988;2024-01-16T01:15:11;1.40;99.90
10692;DHT22;5396;50.950;6.988;2024-01-16T01:17:37;1.40;99.90
10692;DHT22;5396;50.950;6.988;2024-01-16T01:20:02;1.40;99.90
10692;DHT22;5396;50.950;6.988;2024-01-16T01:22:28;1.40;99.90
10692;DHT22;5396;50.950;6.988;2024-01-16T01:24:53;1.40;99.90
10692;DHT22;5396;50.950;6.988;2024-01-16T01:27:19;1.40;99.90
10692;DHT22;5396;50.950;6.988;2024-01-16T01:29:45;1.40;99.90
10692;DHT22;5396;50.950;6.988;2024-01-16T01:32:11;1.40;99.90
10692;DHT22;5396;50.950;6.988;2024-01-16T01:34:36;1.40;99.90
10692;DHT22;5396;50.950;6.988;2024-01-16T01:37:03;1.40;99.90
10692;DHT22;5396;50.950;6.988;2024-01-16T01:39:29;1.40;99.90
10692;DHT22;5396;50.950;6.988;2024-01-16T01:41:55;1.40;99.90
10692;DHT22;5396;50.950;6.988;2024-01-16T01:44:20;1.30;99.90
10692;DHT22;5396;50.950;6.988;2024-01-16T01:46:46;1.30;99.90
10692;DHT22;5396;50.950;6.988;2024-01-16T01:49:12;1.30;99.90
10692;DHT22;5396;50.950;6.988;2024-01-16T01:51:38;1.30;99.90
10692;DHT22;5396;50.950;6.988;2024-01-16T01:54:04;1.40;99.90
10692;DHT22;5396;50.950;6.988;2024-01-16T01:56:29;1.40;99.90
10692;DHT22;5396;50.950;6.988;2024-01-16T01:58:56;1.30;99.90
10692;DHT22;5396;50.950;6.988;2024-01-16T02:01:22;1.40;99.90
10692;DHT22;5396;50.950;6.988;2024-01-16T02:03:47;1.30;99.90
10692;DHT22;5396;50.950;6.988;2024-01-16T02:06:14;1.30;99.90
10692;DHT22;5396;50.950;6.988;2024-01-16T02:08:44;1.40;99.90
10692;DHT22;5396;50.950;6.988;2024-01-16T02:11:10;1.40;99.90
10692;DHT22;5396;50.950;6.988;2024-01-16T02:13:35;1.40;99.90
10692;DHT22;5396;50.950;6.988;2024-01-16T02:16:01;1.30;99.90
10692;DHT22;5396;50.950;6.988;2024-01-16T02:18:28;1.30;99.90
10692;DHT22;5396;50.950;6.988;2024-01-16T02:20:55;1.30;99.90
10692;DHT22;5396;50.950;6.988;2024-01-16T02:23:26;1.20;99.90
10692;DHT22;5396;50.950;6.988;2024-01-16T02:25:52;1.20;99.90
10692;DHT22;5396;50.950;6.988;2024-01-16T02:28:18;1.20;99.90
10692;DHT22;5396;50.950;6.988;2024-01-16T02:30:43;1.20;99.90
10692;DHT22;5396;50.950;6.988;2024-01-16T02:33:09;1.20;99.90
10692;DHT22;5396;50.950;6.988;2024-01-16T02:35:34;1.20;99.90
10692;DHT22;5396;50.950;6.988;2024-01-16T02:38:00;1.20;99.90
10692;DHT22;5396;50.950;6.988;2024-01-16T02:40:26;1.20;99.90
10692;DHT22;5396;50.950;6.988;2024-01-16T02:42:51;1.20;99.90
10692;DHT22;5396;50.950;6.988;2024-01-16T02:45:17;1.20;99.90
10692;DHT22;5396;50.950;6.988;2024-01-16T02:47:42;1.20;99.90
10692;DHT22;5396;50.950;6.988;2024-01-16T02:50:08;1.20;99.90
10692;DHT22;5396;50.950;6.988;2024-01-16T02:52:35;1.20;99.90
10692;DHT22;5396;50.950;6.988;2024-01-16T02:55:00;1.20;99.90
10692;DHT22;5396;50.950;6.988;2024-01-16T02:57:26;1.20;99.90
10692;DHT22;5396;50.950;6.988;2024-01-16T02:59:51;1.20;99.90
10692;DHT22;5396;50.950;6.988;2024-01-16T03:02:17;1.20;99.90
10692;DHT22;5396;50.950;6.988;2024-01-16T03:04:42;1.20;99.90
10692;DHT22;5396;50.950;6.988;2024-01-16T03:07:08;1.20;99.90
10692;DHT22;5396;50.950;6.988;2024-01-16T03:09:33;1.10;99.90
10692;DHT22;5396;50.950;6.988;2024-01-16T03:11:59;1.10;99.90
10692;DHT22;5396;50.950;6.988;2024-01-16T03:14:24;1.10;99.90
10692;DHT22;5396;50.950;6.988;2024-01-16T03:16:50;1.10;99.90
10692;DHT22;5396;50.950;6.988;2024-01-16T03:19:16;1.10;99.90
10692;DHT22;5396;50.950;6.988;2024-01-16T03:21:42;1.10;99.90
10692;DHT22;5396;50.950;6.988;2024-01-16T03:24:08;1.00;99.90
10692;DHT22;5396;50.950;6.988;2024-01-16T03:26:33;1.10;99.90
10692;DHT22;5396;50.950;6.988;2024-01-16T03:28:59;1.00;99.90
10692;DHT22;5396;50.950;6.988;2024-01-16T03:31:25;1.00;99.90
10692;DHT22;5396;50.950;6.988;2024-01-16T03:33:50;1.10;99.90
10692;DHT22;5396;50.950;6.988;2024-01-16T03:36:16;1.10;99.90
10692;DHT22;5396;50.950;6.988;2024-01-16T03:38:42;1.10;99.90
10692;DHT22;5396;50.950;6.988;2024-01-16T03:41:07;1.10;99.90
10692;DHT22;5396;50.950;6.988;2024-01-16T03:43:33;1.10;99.90
10692;DHT22;5396;50.950;6.988;2024-01-16T03:46:00;1.10;99.90
10692;DHT22;5396;50.950;6.988;2024-01-16T03:48:25;1.10;99.90
10692;DHT22;5396;50.950;6.988;2024-01-16T03:50:51;1.10;99.90
10692;DHT22;5396;50.950;6.988;2024-01-16T03:53:16;1.20;99.90
10692;DHT22;5396;50.950;6.988;2024-01-16T03:55:42;1.20;99.90
10692;DHT22;5396;50.950;6.988;2024-01-16T03:58:07;1.10;99.90
10692;DHT22;5396;50.950;6.988;2024-01-16T04:00:33;1.20;99.90
10692;DHT22;5396;50.950;6.988;2024-01-16T04:02:58;1.20;99.90
10692;DHT22;5396;50.950;6.988;2024-01-16T04:05:24;1.20;99.90
10692;DHT22;5396;50.950;6.988;2024-01-16T04:07:49;1.20;99.90
10692;DHT22;5396;50.950;6.988;2024-01-16T04:10:14;1.20;99.90
10692;DHT22;5396;50.950;6.988;2024-01-16T04:12:40;1.20;99.90
10692;DHT22;5396;50.950;6.988;2024-01-16T04:15:06;1.10;99.90
10692;DHT22;5396;50.950;6.988;2024-01-16T04:17:31;1.10;99.90
10692;DHT22;5396;50.950;6.988;2024-01-16T04:19:57;1.10;99.90
10692;DHT22;5396;50.950;6.988;2024-01-16T04:22:22;1.10;99.90
10692;DHT22;5396;50.950;6.988;2024-01-16T04:24:47;1.10;99.90
10692;DHT22;5396;50.950;6.988;2024-01-16T04:27:13;1.10;99.90
10692;DHT22;5396;50.950;6.988;2024-01-16T04:29:38;1.10;99.90
10692;DHT22;5396;50.950;6.988;2024-01-16T04:32:04;1.00;99.90
10692;DHT22;5396;50.950;6.988;2024-01-16T04:34:30;1.10;99.90
10692;DHT22;5396;50.950;6.988;2024-01-16T04:36:55;1.00;99.90
10692;DHT22;5396;50.950;6.988;2024-01-16T04:39:21;1.00;99.90
10692;DHT22;5396;50.950;6.988;2024-01-16T04:41:49;1.00;99.90
10692;DHT22;5396;50.950;6.988;2024-01-16T04:44:15;1.00;99.90
10692;DHT22;5396;50.950;6.988;2024-01-16T04:46:40;1.00;99.90
10692;DHT22;5396;50.950;6.988;2024-01-16T04:49:06;1.00;99.90
10692;DHT22;5396;50.950;6.988;2024-01-16T04:51:31;1.00;99.90
10692;DHT22;5396;50.950;6.988;2024-01-16T04:53:57;1.00;99.90
10692;DHT22;5396;50.950;6.988;2024-01-16T04:56:22;1.00;99.90
10692;DHT22;5396;50.950;6.988;2024-01-16T04:58:51;1.00;99.90
10692;DHT22;5396;50.950;6.988;2024-01-16T05:01:17;1.00;99.90
10692;DHT22;5396;50.950;6.988;2024-01-16T05:03:43;1.00;99.90
10692;DHT22;5396;50.950;6.988;2024-01-16T05:06:14;1.00;99.90
10692;DHT22;5396;50.950;6.988;2024-01-16T05:08:40;1.00;99.90
10692;DHT22;5396;50.950;6.988;2024-01-16T05:11:06;1.00;99.90
10692;DHT22;5396;50.950;6.988;2024-01-16T05:13:31;1.00;99.90
10692;DHT22;5396;50.950;6.988;2024-01-16T05:15:57;1.00;99.90
10692;DHT22;5396;50.950;6.988;2024-01-16T05:18:22;0.90;99.90
10692;DHT22;5396;50.950;6.988;2024-01-16T05:20:48;0.90;99.90
10692;DHT22;5396;50.950;6.988;2024-01-16T05:23:13;0.90;99.90
10692;DHT22;5396;50.950;6.988;2024-01-16T05:25:39;0.90;99.90
10692;DHT22;5396;50.950;6.988;2024-01-16T05:28:04;0.90;99.90
10692;DHT22;5396;50.950;6.988;2024-01-16T05:30:30;0.90;99.90
10692;DHT22;5396;50.950;6.988;2024-01-16T05:32:55;0.90;99.90
10692;DHT22;5396;50.950;6.988;2024-01-16T05:35:21;1.00;99.90
10692;DHT22;5396;50.950;6.988;2024-01-16T05:37:46;1.00;99.90
10692;DHT22;5396;50.950;6.988;2024-01-16T05:40:13;1.10;99.90
10692;DHT22;5396;50.950;6.988;2024-01-16T05:42:38;1.10;99.90
10692;DHT22;5396;50.950;6.988;2024-01-16T05:45:04;1.10;99.90
10692;DHT22;5396;50.950;6.988;2024-01-16T05:47:29;1.10;99.90
10692;DHT22;5396;50.950;6.988;2024-01-16T05:49:55;1.10;99.90
10692;DHT22;5396;50.950;6.988;2024-01-16T05:52:21;1.10;99.90
10692;DHT22;5396;50.950;6.988;2024-01-16T05:54:47;1.10;99.90
10692;DHT22;5396;50.950;6.988;2024-01-16T05:57:12;1.10;99.90
10692;DHT22;5396;50.950;6.988;2024-01-16T05:59:38;1.10;99.90
10692;DHT22;5396;50.950;6.988;2024-01-16T06:02:03;1.10;99.90
10692;DHT22;5396;50.950;6.988;2024-01-16T06:04:29;1.20;99.90
10692;DHT22;5396;50.950;6.988;2024-01-16T06:06:54;1.20;99.90
10692;DHT22;5396;50.950;6.988;2024-01-16T06:09:20;1.10;99.90
10692;DHT22;5396;50.950;6.988;2024-01-16T06:11:45;1.20;99.90
10692;DHT22;5396;50.950;6.988;2024-01-16T06:14:11;1.20;99.90
10692;DHT22;5396;50.950;6.988;2024-01-16T06:16:37;1.10;99.90
10692;DHT22;5396;50.950;6.988;2024-01-16T06:19:03;1.10;99.90
10692;DHT22;5396;50.950;6.988;2024-01-16T06:21:29;1.10;99.90
10692;DHT22;5396;50.950;6.988;2024-01-16T06:23:55;1.10;99.90
10692;DHT22;5396;50.950;6.988;2024-01-16T06:26:21;1.10;99.90
10692;DHT22;5396;50.950;6.988;2024-01-16T06:28:46;1.10;99.90
10692;DHT22;5396;50.950;6.988;2024-01-16T06:31:12;1.10;99.90
10692;DHT22;5396;50.950;6.988;2024-01-16T06:33:37;1.10;99.90
10692;DHT22;5396;50.950;6.988;2024-01-16T06:36:03;1.10;99.90
10692;DHT22;5396;50.950;6.988;2024-01-16T06:38:30;1.10;99.90
10692;DHT22;5396;50.950;6.988;2024-01-16T06:40:56;1.20;99.90
10692;DHT22;5396;50.950;6.988;2024-01-16T06:43:21;1.20;99.90
10692;DHT22;5396;50.950;6.988;2024-01-16T06:45:47;1.20;99.90
10692;DHT22;5396;50.950;6.988;2024-01-16T06:48:13;1.20;99.90
10692;DHT22;5396;50.950;6.988;2024-01-16T06:50:38;1.20;99.90
10692;DHT22;5396;50.950;6.988;2024-01-16T06:53:04;1.20;99.90
10692;DHT22;5396;50.950;6.988;2024-01-16T06:55:29;1.20;99.90
10692;DHT22;5396;50.950;6.988;2024-01-16T06:57:55;1.20;99.90
10692;DHT22;5396;50.950;6.988;2024-01-16T07:00:21;1.20;99.90
10692;DHT22;5396;50.950;6.988;2024-01-16T07:02:48;1.20;99.90
10692;DHT22;5396;50.950;6.988;2024-01-16T07:05:13;1.20;99.90
10692;DHT22;5396;50.950;6.988;2024-01-16T07:07:39;1.20;99.90
10692;DHT22;5396;50.950;6.988;2024-01-16T07:10:05;1.20;99.90
10692;DHT22;5396;50.950;6.988;2024-01-16T07:12:33;1.30;99.90
10692;DHT22;5396;50.950;6.988;2024-01-16T07:14:59;1.30;99.90
10692;DHT22;5396;50.950;6.988;2024-01-16T07:17:24;1.30;99.90
10692;DHT22;5396;50.950;6.988;2024-01-16T07:19:50;1.30;99.90
10692;DHT22;5396;50.950;6.988;2024-01-16T07:22:15;1.30;99.90
10692;DHT22;5396;50.950;6.988;2024-01-16T07:24:41;1.30;99.90
10692;DHT22;5396;50.950;6.988;2024-01-16T07:27:06;1.30;99.90
10692;DHT22;5396;50.950;6.988;2024-01-16T07:29:32;1.30;99.90
10692;DHT22;5396;50.950;6.988;2024-01-16T07:31:57;1.30;99.90
10692;DHT22;5396;50.950;6.988;2024-01-16T07:34:23;1.30;99.90
10692;DHT22;5396;50.950;6.988;2024-01-16T07:36:50;1.40;99.90
10692;DHT22;5396;50.950;6.988;2024-01-16T07:39:16;1.40;99.90
10692;DHT22;5396;50.950;6.988;2024-01-16T07:41:42;1.40;99.90
10692;DHT22;5396;50.950;6.988;2024-01-16T07:44:07;1.40;99.90
10692;DHT22;5396;50.950;6.988;2024-01-16T07:46:33;1.40;99.90
10692;DHT22;5396;50.950;6.988;2024-01-16T07:48:58;1.40;99.90
10692;DHT22;5396;50.950;6.988;2024-01-16T07:51:24;1.40;99.90
10692;DHT22;5396;50.950;6.988;2024-01-16T07:53:51;1.40;99.90
10692;DHT22;5396;50.950;6.988;2024-01-16T07:56:17;1.40;99.90
10692;DHT22;5396;50.950;6.988;2024-01-16T07:58:42;1.40;99.90
10692;DHT22;5396;50.950;6.988;2024-01-16T08:01:08;1.40;99.90
10692;DHT22;5396;50.950;6.988;2024-01-16T08:03:33;1.40;99.90
10692;DHT22;5396;50.950;6.988;2024-01-16T08:05:59;1.40;99.90
10692;DHT22;5396;50.950;6.988;2024-01-16T08:08:24;1.40;99.90
10692;DHT22;5396;50.950;6.988;2024-01-16T08:10:50;1.40;99.90
10692;DHT22;5396;50.950;6.988;2024-01-16T08:13:15;1.40;99.90
10692;DHT22;5396;50.950;6.988;2024-01-16T08:15:41;1.40;99.90
10692;DHT22;5396;50.950;6.988;2024-01-16T08:18:06;1.40;99.90
10692;DHT22;5396;50.950;6.988;2024-01-16T08:20:32;1.40;99.90
10692;DHT22;5396;50.950;6.988;2024-01-16T08:22:57;1.50;99.90
10692;DHT22;5396;50.950;6.988;2024-01-16T08:25:23;1.40;99.90
10692;DHT22;5396;50.950;6.988;2024-01-16T08:27:48;1.40;99.90
10692;DHT22;5396;50.950;6.988;2024-01-16T08:30:14;1.40;99.90
10692;DHT22;5396;50.950;6.988;2024-01-16T08:32:39;1.40;99.90
10692;DHT22;5396;50.950;6.988;2024-01-16T08:35:05;1.50;99.90
10692;DHT22;5396;50.950;6.988;2024-01-16T08:37:34;1.50;99.90
10692;DHT22;5396;50.950;6.988;2024-01-16T08:39:59;1.50;99.90
10692;DHT22;5396;50.950;6.988;2024-01-16T08:42:25;1.50;99.90
10692;DHT22;5396;50.950;6.988;2024-01-16T08:44:50;1.50;99.90
10692;DHT22;5396;50.950;6.988;2024-01-16T08:47:16;1.50;99.90
10692;DHT22;5396;50.950;6.988;2024-01-16T08:49:41;1.40;99.90
10692;DHT22;5396;50.950;6.988;2024-01-16T08:52:08;1.40;99.90
10692;DHT22;5396;50.950;6.988;2024-01-16T08:54:34;1.40;99.90
10692;DHT22;5396;50.950;6.988;2024-01-16T08:56:59;1.40;99.90
10692;DHT22;5396;50.950;6.988;2024-01-16T08:59:25;1.30;99.90
10692;DHT22;5396;50.950;6.988;2024-01-16T09:01:50;1.30;99.90
10692;DHT22;5396;50.950;6.988;2024-01-16T09:04:17;1.30;99.90
10692;DHT22;5396;50.950;6.988;2024-01-16T09:06:42;1.30;99.90
10692;DHT22;5396;50.950;6.988;2024-01-16T09:09:08;1.40;99.90
10692;DHT22;5396;50.950;6.988;2024-01-16T09:11:34;1.40;99.90
10692;DHT22;5396;50.950;6.988;2024-01-16T09:14:00;1.40;99.90
10692;DHT22;5396;50.950;6.988;2024-01-16T09:16:25;1.40;99.90
10692;DHT22;5396;50.950;6.988;2024-01-16T09:18:51;1.40;99.90
10692;DHT22;5396;50.950;6.988;2024-01-16T09:21:16;1.50;99.90
10692;DHT22;5396;50.950;6.988;2024-01-16T09:23:42;1.50;99.90
10692;DHT22;5396;50.950;6.988;2024-01-16T09:26:07;1.50;99.90
10692;DHT22;5396;50.950;6.988;2024-01-16T09:28:33;1.50;99.90
10692;DHT22;5396;50.950;6.988;2024-01-16T09:30:58;1.50;99.90
10692;DHT22;5396;50.950;6.988;2024-01-16T09:33:24;1.50;99.90
10692;DHT22;5396;50.950;6.988;2024-01-16T09:35:51;1.50;99.90
10692;DHT22;5396;50.950;6.988;2024-01-16T09:38:16;1.40;99.90
10692;DHT22;5396;50.950;6.988;2024-01-16T09:40:41;1.50;99.90
10692;DHT22;5396;50.950;6.988;2024-01-16T09:43:08;1.50;99.90
10692;DHT22;5396;50.950;6.988;2024-01-16T09:45:34;1.50;99.90
10692;DHT22;5396;50.950;6.988;2024-01-16T09:48:01;1.50;99.90
10692;DHT22;5396;50.950;6.988;2024-01-16T09:50:27;1.60;99.90
10692;DHT22;5396;50.950;6.988;2024-01-16T09:52:53;1.60;99.90
10692;DHT22;5396;50.950;6.988;2024-01-16T09:55:18;1.60;99.90
10692;DHT22;5396;50.950;6.988;2024-01-16T09:57:45;1.60;99.90
10692;DHT22;5396;50.950;6.988;2024-01-16T10:00:11;1.60;99.90
10692;DHT22;5396;50.950;6.988;2024-01-16T10:02:38;1.60;99.90
10692;DHT22;5396;50.950;6.988;2024-01-16T10:05:04;1.60;99.90
10692;DHT22;5396;50.950;6.988;2024-01-16T10:07:30;1.70;99.90
10692;DHT22;5396;50.950;6.988;2024-01-16T10:09:57;1.70;99.90
10692;DHT22;5396;50.950;6.988;2024-01-16T10:12:23;1.70;99.90
10692;DHT22;5396;50.950;6.988;2024-01-16T10:14:49;1.80;99.90
10692;DHT22;5396;50.950;6.988;2024-01-16T10:17:17;1.90;99.90
10692;DHT22;5396;50.950;6.988;2024-01-16T10:19:49;2.00;99.90
10692;DHT22;5396;50.950;6.988;2024-01-16T10:22:19;2.00;99.90
10692;DHT22;5396;50.950;6.988;2024-01-16T10:24:45;2.00;99.90
10692;DHT22;5396;50.950;6.988;2024-01-16T10:27:10;2.00;99.90
10692;DHT22;5396;50.950;6.988;2024-01-16T10:29:36;2.10;99.90
10692;DHT22;5396;50.950;6.988;2024-01-16T10:32:02;2.10;99.90
10692;DHT22;5396;50.950;6.988;2024-01-16T10:34:27;2.30;99.90
10692;DHT22;5396;50.950;6.988;2024-01-16T10:36:58;2.40;99.90
10692;DHT22;5396;50.950;6.988;2024-01-16T10:39:24;2.50;99.90
10692;DHT22;5396;50.950;6.988;2024-01-16T10:41:56;2.70;99.90
10692;DHT22;5396;50.950;6.988;2024-01-16T10:44:22;2.80;99.90
10692;DHT22;5396;50.950;6.988;2024-01-16T10:46:47;2.70;99.90
10692;DHT22;5396;50.950;6.988;2024-01-16T10:49:13;2.60;99.90
10692;DHT22;5396;50.950;6.988;2024-01-16T10:51:38;2.40;99.90
10692;DHT22;5396;50.950;6.988;2024-01-16T10:54:06;2.30;99.90
10692;DHT22;5396;50.950;6.988;2024-01-16T10:56:33;2.10;99.90
10692;DHT22;5396;50.950;6.988;2024-01-16T11:01:24;2.10;99.90
10692;DHT22;5396;50.950;6.988;2024-01-16T11:03:50;2.00;99.90
10692;DHT22;5396;50.950;6.988;2024-01-16T11:06:18;2.10;99.90
10692;DHT22;5396;50.950;6.988;2024-01-16T11:08:47;2.10;99.90
10692;DHT22;5396;50.950;6.988;2024-01-16T11:11:13;2.10;99.90
10692;DHT22;5396;50.950;6.988;2024-01-16T11:13:38;2.00;99.90
10692;DHT22;5396;50.950;6.988;2024-01-16T11:16:05;1.90;99.90
10692;DHT22;5396;50.950;6.988;2024-01-16T11:18:32;1.90;99.90
10692;DHT22;5396;50.950;6.988;2024-01-16T11:20:58;1.80;99.90
10692;DHT22;5396;50.950;6.988;2024-01-16T11:23:25;1.80;99.90
10692;DHT22;5396;50.950;6.988;2024-01-16T11:25:50;1.90;99.90
10692;DHT22;5396;50.950;6.988;2024-01-16T11:28:16;1.90;99.90
10692;DHT22;5396;50.950;6.988;2024-01-16T11:30:42;1.90;99.90
10692;DHT22;5396;50.950;6.988;2024-01-16T11:33:41;1.80;99.90
10692;DHT22;5396;50.950;6.988;2024-01-16T11:36:01;1.80;99.90
10692;DHT22;5396;50.950;6.988;2024-01-16T11:38:27;1.80;99.90
10692;DHT22;5396;50.950;6.988;2024-01-16T11:40:54;1.80;99.90
10692;DHT22;5396;50.950;6.988;2024-01-16T11:45:58;1.80;99.90
10692;DHT22;5396;50.950;6.988;2024-01-16T11:48:24;1.80;99.90
10692;DHT22;5396;50.950;6.988;2024-01-16T11:50:49;1.70;99.90
10692;DHT22;5396;50.950;6.988;2024-01-16T12:01:21;1.90;99.90
10692;DHT22;5396;50.950;6.988;2024-01-16T12:04:01;2.00;99.90
10692;DHT22;5396;50.950;6.988;2024-01-16T12:06:26;1.90;99.90
10692;DHT22;5396;50.950;6.988;2024-01-16T12:08:52;1.80;99.90
10692;DHT22;5396;50.950;6.988;2024-01-16T12:11:18;1.80;99.90
10692;DHT22;5396;50.950;6.988;2024-01-16T12:13:44;1.70;99.90
10692;DHT22;5396;50.950;6.988;2024-01-16T12:16:09;1.70;99.90
10692;DHT22;5396;50.950;6.988;2024-01-16T12:18:34;1.70;99.90
10692;DHT22;5396;50.950;6.988;2024-01-16T12:21:07;1.80;99.90
10692;DHT22;5396;50.950;6.988;2024-01-16T12:23:33;1.80;99.90
10692;DHT22;5396;50.950;6.988;2024-01-16T12:25:59;2.00;99.90
10692;DHT22;5396;50.950;6.988;2024-01-16T12:28:28;2.20;99.90
10692;DHT22;5396;50.950;6.988;2024-01-16T12:30:54;2.30;99.90
10692;DHT22;5396;50.950;6.988;2024-01-16T12:33:22;2.40;99.90
10692;DHT22;5396;50.950;6.988;2024-01-16T12:35:48;2.50;99.90
10692;DHT22;5396;50.950;6.988;2024-01-16T12:38:14;2.60;99.90
10692;DHT22;5396;50.950;6.988;2024-01-16T12:40:42;2.50;99.90
10692;DHT22;5396;50.950;6.988;2024-01-16T12:43:08;2.60;99.90
10692;DHT22;5396;50.950;6.988;2024-01-16T12:45:34;2.70;99.90
10692;DHT22;5396;50.950;6.988;2024-01-16T12:48:01;2.90;99.90
10692;DHT22;5396;50.950;6.988;2024-01-16T12:50:29;2.90;99.90
10692;DHT22;5396;50.950;6.988;2024-01-16T12:53:08;2.70;99.90
10692;DHT22;5396;50.950;6.988;2024-01-16T12:55:35;2.80;99.90
10692;DHT22;5396;50.950;6.988;2024-01-16T12:58:19;2.80;99.90
10692;DHT22;5396;50.950;6.988;2024-01-16T13:00:45;2.70;99.90
10692;DHT22;5396;50.950;6.988;2024-01-16T13:03:18;2.60;99.90
10692;DHT22;5396;50.950;6.988;2024-01-16T13:05:44;2.60;99.90
10692;DHT22;5396;50.950;6.988;2024-01-16T13:08:16;2.60;99.90
10692;DHT22;5396;50.950;6.988;2024-01-16T13:10:42;2.50;99.90
10692;DHT22;5396;50.950;6.988;2024-01-16T13:13:17;2.50;99.90
10692;DHT22;5396;50.950;6.988;2024-01-16T13:15:46;2.60;99.90
10692;DHT22;5396;50.950;6.988;2024-01-16T13:18:21;2.60;99.90
10692;DHT22;5396;50.950;6.988;2024-01-16T13:20:51;2.70;99.90
10692;DHT22;5396;50.950;6.988;2024-01-16T13:23:17;2.60;99.90
10692;DHT22;5396;50.950;6.988;2024-01-16T13:25:43;2.50;99.90
10692;DHT22;5396;50.950;6.988;2024-01-16T13:28:09;2.50;99.90
10692;DHT22;5396;50.950;6.988;2024-01-16T13:30:35;2.50;99.90
10692;DHT22;5396;50.950;6.988;2024-01-16T13:33:00;2.40;99.90
10692;DHT22;5396;50.950;6.988;2024-01-16T13:35:26;2.30;99.90
10692;DHT22;5396;50.950;6.988;2024-01-16T13:37:52;2.20;99.90
10692;DHT22;5396;50.950;6.988;2024-01-16T13:40:18;2.20;99.90
10692;DHT22;5396;50.950;6.988;2024-01-16T13:42:44;2.10;99.90
10692;DHT22;5396;50.950;6.988;2024-01-16T13:45:10;1.90;99.90
10692;DHT22;5396;50.950;6.988;2024-01-16T13:47:38;1.90;99.90
10692;DHT22;5396;50.950;6.988;2024-01-16T13:50:06;1.90;99.90
10692;DHT22;5396;50.950;6.988;2024-01-16T13:52:32;2.00;99.90
10692;DHT22;5396;50.950;6.988;2024-01-16T13:54:57;2.30;99.90
10692;DHT22;5396;50.950;6.988;2024-01-16T13:57:23;2.50;99.90
10692;DHT22;5396;50.950;6.988;2024-01-16T13:59:48;2.70;99.90
10692;DHT22;5396;50.950;6.988;2024-01-16T14:02:14;2.90;99.90
10692;DHT22;5396;50.950;6.988;2024-01-16T14:04:40;3.10;99.90
10692;DHT22;5396;50.950;6.988;2024-01-16T14:07:05;2.90;99.90
10692;DHT22;5396;50.950;6.988;2024-01-16T14:09:34;2.60;99.90
10692;DHT22;5396;50.950;6.988;2024-01-16T14:12:00;2.50;99.90
10692;DHT22;5396;50.950;6.988;2024-01-16T14:14:26;2.40;99.90
10692;DHT22;5396;50.950;6.988;2024-01-16T14:16:52;3.00;99.90
10692;DHT22;5396;50.950;6.988;2024-01-16T14:19:19;4.10;99.90
10692;DHT22;5396;50.950;6.988;2024-01-16T14:21:45;5.30;99.90
10692;DHT22;5396;50.950;6.988;2024-01-16T14:24:12;6.10;99.90
10692;DHT22;5396;50.950;6.988;2024-01-16T14:26:37;6.60;99.90
10692;DHT22;5396;50.950;6.988;2024-01-16T14:29:03;7.20;99.90
10692;DHT22;5396;50.950;6.988;2024-01-16T14:31:28;6.60;99.90
10692;DHT22;5396;50.950;6.988;2024-01-16T14:33:54;6.00;99.90
10692;DHT22;5396;50.950;6.988;2024-01-16T14:36:19;5.00;99.90
10692;DHT22;5396;50.950;6.988;2024-01-16T14:38:45;4.30;99.90
10692;DHT22;5396;50.950;6.988;2024-01-16T14:41:11;4.00;99.90
10692;DHT22;5396;50.950;6.988;2024-01-16T14:43:40;4.00;99.90
10692;DHT22;5396;50.950;6.988;2024-01-16T14:46:05;3.70;99.90
10692;DHT22;5396;50.950;6.988;2024-01-16T14:48:35;3.50;99.90
10692;DHT22;5396;50.950;6.988;2024-01-16T14:51:01;3.10;99.90
10692;DHT22;5396;50.950;6.988;2024-01-16T14:53:26;2.70;99.90
10692;DHT22;5396;50.950;6.988;2024-01-16T14:55:52;2.40;99.90
10692;DHT22;5396;50.950;6.988;2024-01-16T14:58:18;2.40;99.90
10692;DHT22;5396;50.950;6.988;2024-01-16T15:00:48;2.50;99.90
10692;DHT22;5396;50.950;6.988;2024-01-16T15:03:14;2.70;99.90
10692;DHT22;5396;50.950;6.988;2024-01-16T15:05:39;2.80;99.90
10692;DHT22;5396;50.950;6.988;2024-01-16T15:08:05;2.90;99.90
10692;DHT22;5396;50.950;6.988;2024-01-16T15:10:31;2.90;99.90
10692;DHT22;5396;50.950;6.988;2024-01-16T15:12:57;2.70;99.90
10692;DHT22;5396;50.950;6.988;2024-01-16T15:15:23;2.60;99.90
10692;DHT22;5396;50.950;6.988;2024-01-16T15:17:48;2.40;99.90
10692;DHT22;5396;50.950;6.988;2024-01-16T15:20:14;2.10;99.90
10692;DHT22;5396;50.950;6.988;2024-01-16T15:22:41;1.80;99.90
10692;DHT22;5396;50.950;6.988;2024-01-16T15:25:08;1.60;99.90
10692;DHT22;5396;50.950;6.988;2024-01-16T15:27:33;1.40;99.90
10692;DHT22;5396;50.950;6.988;2024-01-16T15:29:59;1.30;99.90
10692;DHT22;5396;50.950;6.988;2024-01-16T15:32:25;1.30;99.90
10692;DHT22;5396;50.950;6.988;2024-01-16T15:34:51;1.20;99.90
10692;DHT22;5396;50.950;6.988;2024-01-16T15:37:17;1.20;99.90
10692;DHT22;5396;50.950;6.988;2024-01-16T15:39:42;1.20;99.90
10692;DHT22;5396;50.950;6.988;2024-01-16T15:42:08;1.10;99.90
10692;DHT22;5396;50.950;6.988;2024-01-16T15:44:33;1.10;99.90
10692;DHT22;5396;50.950;6.988;2024-01-16T15:47:01;1.10;99.90
10692;DHT22;5396;50.950;6.988;2024-01-16T15:49:27;1.00;99.90
10692;DHT22;5396;50.950;6.988;2024-01-16T15:51:53;0.90;99.90
10692;DHT22;5396;50.950;6.988;2024-01-16T15:54:19;0.90;99.90
10692;DHT22;5396;50.950;6.988;2024-01-16T15:56:48;0.90;99.90
10692;DHT22;5396;50.950;6.988;2024-01-16T15:59:14;0.90;99.90
10692;DHT22;5396;50.950;6.988;2024-01-16T16:01:42;0.80;99.90
10692;DHT22;5396;50.950;6.988;2024-01-16T16:04:07;0.80;99.90
10692;DHT22;5396;50.950;6.988;2024-01-16T16:06:37;0.80;99.90
10692;DHT22;5396;50.950;6.988;2024-01-16T16:09:03;0.80;99.90